Time;durP1;ratioP1;P1;durP2;ratioP2;P2;SDS_P1;SDS_P2;PMS_P1;PMS_P2;Temp;Humidity;BMP_temperature;BMP_pressure;BME280_temperature;BME280_humidity;BME280_pressure;Samples;Min_cycle;Max_cycle;Signal;HPM_P1;HPM_P2
2021/12/07 00:00:51;;;;;;;4.80;4.30;;;2.10;94.50;;;;;;5072863;28;21226;-82
2021/12/07 00:03:17;;;;;;;4.73;4.53;;;;;;;;;;5070883;28;20816;-82
2021/12/07 00:05:43;;;;;;;4.73;3.90;;;;;;;;;;5072254;28;20436;-82
2021/12/07 00:08:09;;;;;;;4.27;4.07;;;;;;;;;;5074261;28;20500;-81
2021/12/07 00:10:37;;;;;;;4.93;4.43;;;;;;;;;;5091598;28;20409;-82
2021/12/07 00:13:03;;;;;;;4.90;4.60;;;;;;;;;;5107436;28;20446;-82
2021/12/07 00:15:30;;;;;;;5.00;4.70;;;;;;;;;;5116559;28;20413;-82
2021/12/07 00:17:56;;;;;;;5.03;4.63;;;;;;;;;;5115080;28;20436;-80
2021/12/07 00:20:23;;;;;;;4.70;4.50;;;;;;;;;;5103450;28;20465;-81
2021/12/07 00:22:52;;;;;;;5.10;4.80;;;1.90;96.40;;;;;;5103066;28;20412;-82
2021/12/07 00:25:18;;;;;;;5.47;5.10;;;1.80;96.30;;;;;;5114820;28;20496;-81
2021/12/07 00:27:44;;;;;;;5.53;5.03;;;;;;;;;;5115199;28;20734;-81
2021/12/07 00:30:11;;;;;;;4.67;4.47;;;1.90;96.00;;;;;;5115006;28;20174;-81
2021/12/07 00:32:43;;;;;;;5.30;4.90;;;0.60;96.10;;;;;;5099485;28;20550;-82
2021/12/07 00:37:42;;;;;;;5.30;4.90;;;1.60;96.90;;;;;;5093097;28;20400;-81
2021/12/07 00:40:10;;;;;;;6.97;6.10;;;2.00;97.00;;;;;;5084722;28;20468;-82
2021/12/07 00:42:36;;;;;;;4.70;4.40;;;1.90;96.60;;;;;;5088936;28;20565;-81
2021/12/07 00:45:03;;;;;;;5.00;4.70;;;1.80;96.50;;;;;;5084988;28;20844;-81
2021/12/07 00:47:29;;;;;;;4.67;4.47;;;;;;;;;;5072497;28;20421;-82
2021/12/07 00:49:56;;;;;;;8.80;6.00;;;;;;;;;;5071790;28;20418;-82
2021/12/07 00:52:23;;;;;;;4.77;4.47;;;2.20;96.40;;;;;;5071527;28;20414;-82
2021/12/07 00:54:49;;;;;;;5.60;5.20;;;;;;;;;;5069921;28;20420;-81
2021/12/07 00:57:15;;;;;;;4.50;4.13;;;;;;;;;;5071011;28;20457;-81
2021/12/07 00:59:41;;;;;;;5.40;5.10;;;;;;;;;;5070360;28;20507;-81
2021/12/07 01:02:07;;;;;;;5.37;5.07;;;;;;;;;;5070203;28;20732;-80
2021/12/07 01:04:33;;;;;;;5.93;5.53;;;2.30;95.60;;;;;;5071104;28;20488;-80
2021/12/07 01:07:04;;;;;;;4.93;4.70;;;;;;;;;;5071469;28;20489;-80
2021/12/07 01:25:54;;;;;;;4.70;4.50;;;;;;;;;;5089529;28;20485;-81
2021/12/07 01:28:45;;;;;;;5.23;4.93;;;3.10;96.00;;;;;;5079236;28;20405;-81
2021/12/07 01:31:21;;;;;;;4.27;4.07;;;2.60;95.20;;;;;;5068242;28;20403;-81
2021/12/07 01:49:58;;;;;;;4.40;4.20;;;;;;;;;;5087505;28;20444;-81
2021/12/07 01:59:32;;;;;;;6.13;5.40;;;;;;;;;;5068223;28;20415;-81
2021/12/07 02:00:46;;;;;;;4.73;4.43;;;2.90;96.40;;;;;;5068293;28;20421;-80
2021/12/07 02:03:12;;;;;;;12.30;4.70;;;;;;;;;;5067610;28;20408;-81
2021/12/07 02:05:38;;;;;;;5.20;4.90;;;;;;;;;;5067793;28;20404;-81
2021/12/07 02:08:04;;;;;;;4.53;4.13;;;;;;;;;;5068468;28;20833;-81
2021/12/07 02:10:32;;;;;;;5.63;5.13;;;;;;;;;;5078448;28;20391;-81
2021/12/07 02:13:04;;;;;;;5.20;4.90;;;;;;;;;;5087581;28;20383;-81
2021/12/07 02:15:31;;;;;;;5.47;5.17;;;2.70;96.50;;;;;;5088461;28;20395;-80
2021/12/07 02:17:57;;;;;;;5.57;5.17;;;;;;;;;;5074174;28;20470;-80
2021/12/07 02:20:26;;;;;;;4.33;4.13;;;2.90;96.60;;;;;;5068065;28;20428;-81
2021/12/07 02:22:51;;;;;;;5.50;5.10;;;;;;;;;;5079560;28;20444;-82
2021/12/07 02:25:18;;;;;;;6.20;5.70;;;2.80;96.50;;;;;;5089503;28;20486;-81
2021/12/07 02:27:45;;;;;;;5.70;5.30;;;;;;;;;;5093058;28;20948;-82
2021/12/07 02:30:15;;;;;;;5.63;5.23;;;2.90;96.50;;;;;;5091776;28;20435;-82
2021/12/07 02:32:42;;;;;;;9.60;5.40;;;2.80;97.70;;;;;;5091828;28;20489;-81
2021/12/07 02:35:10;;;;;;;6.60;5.80;;;2.70;96.50;;;;;;5086205;28;20483;-80
2021/12/07 02:37:36;;;;;;;4.90;4.60;;;;;;;;;;5071572;28;20396;-81
2021/12/07 02:40:04;;;;;;;4.97;4.57;;;2.80;97.30;;;;;;5082628;28;20470;-81
2021/12/07 02:42:30;;;;;;;6.50;5.70;;;;;;;;;;5091120;28;20946;-81
2021/12/07 02:44:56;;;;;;;6.30;5.73;;;;;;;;;;5091997;28;20399;-81
2021/12/07 02:47:22;;;;;;;5.60;5.20;;;;;;;;;;5092427;28;20476;-81
2021/12/07 02:49:49;;;;;;;6.67;6.17;;;;;;;;;;5091949;28;20382;-82
2021/12/07 02:52:15;;;;;;;5.73;4.97;;;;;;;;;;5091542;28;20441;-82
2021/12/07 02:54:47;;;;;;;5.70;5.30;;;2.80;97.30;;;;;;5081315;28;21072;-82
2021/12/07 02:57:15;;;;;;;5.83;5.30;;;3.10;97.40;;;;;;5069935;28;20825;-82
2021/12/07 02:59:51;;;;;;;6.00;5.50;;;2.60;95.90;;;;;;5070074;28;20440;-82
2021/12/07 03:02:18;;;;;;;9.13;6.37;;;;;;;;;;5071022;28;20410;-82
2021/12/07 03:04:59;;;;;;;4.57;4.13;;;2.70;96.50;;;;;;5070333;28;20411;-82
2021/12/07 03:08:10;;;;;;;4.50;4.33;;;;;;;;;;5071458;28;20393;-82
2021/12/07 03:26:35;;;;;;;4.10;3.80;;;;;;;;;;5091393;28;20767;-81
2021/12/07 03:29:02;;;;;;;4.23;3.83;;;;;;;;;;5091488;28;20375;-81
2021/12/07 03:31:29;;;;;;;4.40;4.10;;;;;;;;;;5091380;28;20415;-81
2021/12/07 03:33:56;;;;;;;5.07;4.70;;;2.90;97.80;;;;;;5090414;28;20509;-81
2021/12/07 03:36:22;;;;;;;4.70;4.40;;;;;;;;;;5088863;28;20435;-81
2021/12/07 03:38:48;;;;;;;5.40;5.10;;;;;;;;;;5071385;28;20976;-81
2021/12/07 03:41:14;;;;;;;10.97;5.77;;;;;;;;;;5090298;28;20416;-82
2021/12/07 03:43:41;;;;;;;5.93;5.40;;;2.90;97.90;;;;;;5089808;28;20401;-82
2021/12/07 03:46:08;;;;;;;7.63;4.80;;;2.90;97.90;;;;;;5089334;28;20447;-82
2021/12/07 03:48:34;;;;;;;4.23;4.00;;;;;;;;;;5086650;28;20421;-81
2021/12/07 03:51:00;;;;;;;4.93;4.27;;;;;;;;;;5069938;28;20419;-80
2021/12/07 03:53:30;;;;;;;6.47;5.90;;;2.80;97.50;;;;;;5069053;28;20419;-81
2021/12/07 03:55:58;;;;;;;5.80;5.40;;;2.50;97.60;;;;;;5068403;28;21194;-81
2021/12/07 03:58:24;;;;;;;5.40;5.10;;;;;;;;;;5090194;28;20399;-81
2021/12/07 04:00:50;;;;;;;5.73;5.40;;;;;;;;;;5090216;28;20453;-81
2021/12/07 04:03:18;;;;;;;11.83;5.63;;;2.70;97.90;;;;;;5089034;28;20485;-81
2021/12/07 04:05:49;;;;;;;5.60;5.10;;;2.90;99.90;;;;;;5090045;28;20452;-81
2021/12/07 04:08:17;;;;;;;7.63;6.00;;;2.80;97.30;;;;;;5088169;28;20546;-82
2021/12/07 04:10:43;;;;;;;6.20;5.77;;;;;;;;;;5088175;28;20457;-82
2021/12/07 04:13:09;;;;;;;7.33;6.63;;;;;;;;;;5089135;28;20397;-82
2021/12/07 04:15:35;;;;;;;10.33;6.30;;;2.90;96.80;;;;;;5090410;28;20399;-82
2021/12/07 04:18:01;;;;;;;6.23;5.77;;;;;;;;;;5081480;28;20742;-83
2021/12/07 04:20:27;;;;;;;6.40;5.90;;;;;;;;;;5085612;28;20563;-82
2021/12/07 04:22:54;;;;;;;11.33;8.43;;;;;;;;;;5088693;28;20417;-82
2021/12/07 04:25:20;;;;;;;11.00;5.47;;;;;;;;;;5086173;28;20443;-82
2021/12/07 04:27:46;;;;;;;5.33;4.70;;;;;;;;;;5088532;28;20388;-81
2021/12/07 04:30:16;;;;;;;5.20;4.90;;;3.20;96.80;;;;;;5090360;28;20849;-83
2021/12/07 04:32:42;;;;;;;10.60;4.80;;;;;;;;;;5078386;28;20482;-82
2021/12/07 04:35:09;;;;;;;4.13;3.83;;;2.80;96.20;;;;;;5070295;28;20437;-83
2021/12/07 04:37:35;;;;;;;4.77;4.13;;;;;;;;;;5070475;28;20404;-83
2021/12/07 04:40:01;;;;;;;4.07;3.97;;;;;;;;;;5082683;28;20530;-83
2021/12/07 04:42:27;;;;;;;4.40;4.03;;;;;;;;;;5089396;28;20409;-83
2021/12/07 04:45:00;;;;;;;4.37;3.73;;;2.60;96.40;;;;;;5089212;28;20409;-83
2021/12/07 04:57:59;;;;;;;3.90;3.67;;;;;;;;;;5071091;28;20537;-83
2021/12/07 05:00:28;;;;;;;5.03;3.97;;;2.70;96.80;;;;;;5069184;28;20515;-83
2021/12/07 05:02:58;;;;;;;5.60;4.13;;;;;;;;;;5070203;28;20414;-83
2021/12/07 05:05:30;;;;;;;6.10;4.63;;;3.00;96.90;;;;;;5069379;28;20446;-83
2021/12/07 05:07:59;;;;;;;5.50;4.20;;;3.00;99.90;;;;;;5068875;28;20483;-83
2021/12/07 05:10:34;;;;;;;5.00;4.50;;;3.10;99.90;;;;;;5084843;28;20411;-83
2021/12/07 05:18:37;;;;;;;5.87;4.30;;;3.20;95.70;;;;;;5090627;28;20447;-83
2021/12/07 05:24:02;;;;;;;5.43;4.37;;;;;;;;;;5089538;28;20895;-83
2021/12/07 05:40:00;;;;;;;5.10;4.70;;;;;;;;;;5085230;28;20861;-84
2021/12/07 05:42:26;;;;;;;4.30;4.00;;;;;;;;;;5089241;28;20420;-84
2021/12/07 05:44:54;;;;;;;8.90;4.73;;;2.60;96.00;;;;;;5088675;28;20436;-84
2021/12/07 05:47:20;;;;;;;9.07;5.13;;;;;;;;;;5084724;28;20420;-84
2021/12/07 05:49:46;;;;;;;5.83;4.40;;;;;;;;;;5088761;28;20999;-84
2021/12/07 05:52:12;;;;;;;7.13;4.40;;;;;;;;;;5089149;28;20429;-84
2021/12/07 05:54:38;;;;;;;3.93;3.73;;;;;;;;;;5081796;28;20448;-85
2021/12/07 05:57:05;;;;;;;10.73;4.07;;;;;;;;;;5089751;28;20404;-85
2021/12/07 05:59:31;;;;;;;4.30;4.03;;;;;;;;;;5089492;28;20464;-85
2021/12/07 06:01:57;;;;;;;11.33;4.00;;;;;;;;;;5092128;28;20881;-85
2021/12/07 06:04:23;;;;;;;7.70;3.87;;;;;;;;;;5091718;28;20409;-85
2021/12/07 06:06:49;;;;;;;11.20;4.93;;;;;;;;;;5094276;28;21152;-85
2021/12/07 06:09:15;;;;;;;4.27;4.07;;;;;;;;;;5091978;28;20403;-85
2021/12/07 06:11:42;;;;;;;8.57;4.47;;;;;;;;;;5089968;28;20576;-85
2021/12/07 06:14:11;;;;;;;4.90;4.37;;;;;;;;;;5091067;28;20476;-85
2021/12/07 06:16:37;;;;;;;5.07;4.67;;;;;;;;;;5094372;28;20411;-86
2021/12/07 06:19:03;;;;;;;18.00;4.13;;;;;;;;;;5092947;28;20441;-86
2021/12/07 06:21:29;;;;;;;5.93;4.67;;;;;;;;;;5093445;28;20444;-86
2021/12/07 06:23:55;;;;;;;11.37;7.50;;;;;;;;;;5092049;28;20419;-85
2021/12/07 06:26:24;;;;;;;10.50;5.00;;;;;;;;;;5093889;28;20437;-86
2021/12/07 06:28:52;;;;;;;6.83;4.20;;;3.50;94.30;;;;;;5094771;28;20548;-86
2021/12/07 06:31:21;;;;;;;9.13;4.63;;;;;;;;;;5094996;28;20390;-86
2021/12/07 06:33:48;;;;;;;17.83;5.00;;;;;;;;;;5092285;28;20474;-86
2021/12/07 06:36:29;;;;;;;;;;;;;;;;;;;;;
2021/12/07 06:39:01;;;;;;;7.93;4.57;;;;;;;;;;5091153;28;20470;-86
2021/12/07 06:41:27;;;;;;;7.00;4.30;;;;;;;;;;5095543;28;20383;-86
2021/12/07 06:43:55;;;;;;;9.93;4.93;;;;;;;;;;5092408;28;20390;-86
2021/12/07 06:46:21;;;;;;;6.40;4.47;;;;;;;;;;5096204;28;20506;-87
2021/12/07 06:48:47;;;;;;;6.30;4.90;;;;;;;;;;5097133;28;20404;-86
2021/12/07 06:51:14;;;;;;;4.30;4.03;;;;;;;;;;5112866;28;20378;-87
2021/12/07 06:53:40;;;;;;;8.00;4.90;;;;;;;;;;5112099;28;20393;-87
2021/12/07 06:56:07;;;;;;;11.07;5.23;;;;;;;;;;5113317;28;20417;-87
2021/12/07 06:58:33;;;;;;;11.13;5.10;;;;;;;;;;5111554;28;20499;-87
2021/12/07 07:01:05;;;;;;;10.63;4.90;;;;;;;;;;5111492;28;20415;-87
2021/12/07 07:03:31;;;;;;;11.63;4.70;;;;;;;;;;5113225;28;20777;-86
2021/12/07 07:05:59;;;;;;;6.33;4.00;;;;;;;;;;5111355;28;20532;-86
2021/12/07 07:08:25;;;;;;;11.17;5.93;;;;;;;;;;5104717;28;20445;-86
2021/12/07 07:10:52;;;;;;;7.00;4.90;;;;;;;;;;5091273;28;20889;-86
2021/12/07 07:13:18;;;;;;;11.20;4.20;;;;;;;;;;5089220;28;20405;-87
2021/12/07 07:15:51;;;;;;;6.07;5.07;;;;;;;;;;5090914;28;20447;-86
2021/12/07 07:18:19;;;;;;;13.43;4.43;;;;;;;;;;5102931;28;20412;-86
2021/12/07 07:20:45;;;;;;;10.50;4.00;;;;;;;;;;5098062;28;20453;-86
2021/12/07 07:23:21;;;;;;;10.00;5.00;;;;;;;;;;5093567;28;20484;-87
2021/12/07 07:25:47;;;;;;;16.43;4.80;;;;;;;;;;5091969;28;20796;-87
2021/12/07 07:28:13;;;;;;;10.03;4.53;;;;;;;;;;5090575;28;20416;-87
2021/12/07 07:35:36;;;;;;;7.33;4.50;;;;;;;;;;5127455;27;20594;-87
2021/12/07 07:38:02;;;;;;;13.10;4.60;;;;;;;;;;5106075;28;20394;-87
2021/12/07 07:40:28;;;;;;;14.53;4.33;;;;;;;;;;5101890;28;20404;-87
2021/12/07 07:42:54;;;;;;;7.30;4.73;;;;;;;;;;5104991;28;20416;-87
2021/12/07 07:45:20;;;;;;;12.33;5.20;;;;;;;;;;5105756;28;20494;-87
2021/12/07 07:47:49;;;;;;;4.30;3.53;;;;;;;;;;5106481;28;21032;-88
2021/12/07 07:51:15;;;;;;;8.77;4.70;;;3.60;93.00;;;;;;5106534;28;20925;-88
2021/12/07 08:00:30;;;;;;;6.10;4.07;;;;;;;;;;5107272;28;20916;-87
2021/12/07 08:03:09;;;;;;;;;;;;;;;;;;;;;
2021/12/07 08:05:35;;;;;;;3.97;3.67;;;;;;;;;;5109200;28;20527;-87
2021/12/07 08:08:15;;;;;;;9.57;4.17;;;;;;;;;;5108729;28;20694;-87
2021/12/07 08:10:41;;;;;;;10.27;4.50;;;;;;;;;;5103691;28;20830;-87
2021/12/07 08:13:47;;;;;;;7.90;4.13;;;;;;;;;;5105560;28;20408;-86
2021/12/07 08:16:20;;;;;;;14.93;4.20;;;;;;;;;;5106808;28;20436;-85
2021/12/07 08:18:53;;;;;;;5.07;3.40;;;;;;;;;;5106574;28;20375;-86
2021/12/07 08:21:19;;;;;;;11.17;4.67;;;;;;;;;;5106991;28;20863;-86
2021/12/07 08:24:27;;;;;;;5.60;4.33;;;;;;;;;;5104126;28;20420;-85
2021/12/07 08:26:55;;;;;;;6.67;4.93;;;;;;;;;;5105689;28;20408;-86
2021/12/07 08:29:59;;;;;;;13.50;3.80;;;;;;;;;;5106152;28;20443;-86
2021/12/07 08:32:45;;;;;;;5.20;3.57;;;;;;;;;;5106918;28;20420;-85
2021/12/07 08:40:39;;;;;;;5.80;3.53;;;;;;;;;;4093563;25;20493;-85
2021/12/07 08:43:06;;;;;;;7.97;4.33;;;;;;;;;;5061906;28;20454;-85
2021/12/07 08:49:00;;;;;;;4.37;3.80;;;;;;;;;;5073473;28;20413;-86
2021/12/07 08:51:28;;;;;;;8.10;3.30;;;;;;;;;;5063629;28;20414;-86
2021/12/07 08:59:48;;;;;;;8.23;4.00;;;;;;;;;;5012111;28;20391;-85
2021/12/07 09:02:33;;;;;;;12.30;4.00;;;;;;;;;;5037050;28;20422;-86
2021/12/07 09:04:59;;;;;;;3.53;3.33;;;;;;;;;;5056022;28;20516;-86
2021/12/07 09:07:37;;;;;;;15.33;4.40;;;;;;;;;;5055828;28;20428;-86
2021/12/07 09:10:05;;;;;;;4.83;3.43;;;;;;;;;;5058901;28;20462;-86
2021/12/07 09:12:35;;;;;;;4.40;3.17;;;;;;;;;;5055171;28;20421;-86
2021/12/07 09:15:04;;;;;;;16.47;4.53;;;5.30;86.80;;;;;;5053481;28;20544;-86
2021/12/07 09:17:30;;;;;;;11.30;3.90;;;;;;;;;;5055324;28;20407;-86
2021/12/07 09:19:56;;;;;;;8.10;3.83;;;;;;;;;;5054345;28;20430;-86
2021/12/07 09:22:23;;;;;;;7.77;3.87;;;4.80;89.90;;;;;;5054350;28;20411;-86
2021/12/07 09:24:49;;;;;;;15.00;6.73;;;;;;;;;;5054493;28;20445;-86
2021/12/07 09:27:15;;;;;;;13.40;4.10;;;;;;;;;;5055563;28;20407;-86
2021/12/07 09:29:41;;;;;;;15.27;3.87;;;;;;;;;;5055180;28;20418;-86
2021/12/07 09:32:07;;;;;;;3.67;3.33;;;;;;;;;;5054344;28;20377;-86
2021/12/07 09:34:34;;;;;;;8.73;4.30;;;;;;;;;;5055654;28;20548;-86
2021/12/07 09:37:00;;;;;;;8.40;4.20;;;;;;;;;;5054707;28;20407;-86
2021/12/07 09:39:26;;;;;;;7.13;4.13;;;;;;;;;;5058391;28;20389;-85
2021/12/07 09:41:52;;;;;;;15.23;4.20;;;;;;;;;;5054559;28;20414;-86
2021/12/07 09:44:18;;;;;;;6.77;3.63;;;;;;;;;;5055652;28;20406;-86
2021/12/07 09:46:44;;;;;;;13.07;3.70;;;;;;;;;;5053951;28;20466;-86
2021/12/07 09:49:11;;;;;;;7.43;4.00;;;5.00;87.20;;;;;;5055869;28;20876;-86
2021/12/07 09:51:38;;;;;;;19.87;4.67;;;;;;;;;;5055245;28;20414;-86
2021/12/07 09:54:05;;;;;;;3.87;3.57;;;5.20;88.40;;;;;;5054855;28;20469;-85
2021/12/07 09:56:32;;;;;;;6.20;3.20;;;;;;;;;;5053590;28;20435;-85
2021/12/07 09:58:59;;;;;;;8.03;3.90;;;5.10;87.80;;;;;;5054518;28;20389;-86
2021/12/07 10:01:27;;;;;;;11.70;4.00;;;5.10;86.90;;;;;;5053092;28;20421;-86
2021/12/07 10:03:55;;;;;;;5.77;3.87;;;4.90;86.20;;;;;;5052642;28;20414;-85
2021/12/07 10:06:21;;;;;;;7.33;3.77;;;;;;;;;;5051844;28;20438;-85
2021/12/07 10:08:48;;;;;;;12.07;4.27;;;5.30;84.30;;;;;;5056439;28;20410;-85
2021/12/07 10:11:14;;;;;;;3.73;3.53;;;;;;;;;;5052635;28;20414;-85
2021/12/07 10:13:41;;;;;;;8.43;3.47;;;6.10;83.10;;;;;;5051321;28;20461;-85
2021/12/07 10:16:09;;;;;;;7.60;3.63;;;6.80;80.10;;;;;;5052354;28;20434;-85
2021/12/07 10:18:42;;;;;;;7.60;3.40;;;7.50;76.10;;;;;;5050842;28;20426;-85
2021/12/07 10:21:39;;;;;;;14.27;4.53;;;7.70;72.40;;;;;;5052014;28;20916;-86
2021/12/07 10:24:09;;;;;;;5.13;3.00;;;8.60;70.60;;;;;;5051665;28;20480;-85
2021/12/07 10:26:41;;;;;;;9.33;3.23;;;9.50;65.90;;;;;;5051878;28;20437;-85
2021/12/07 10:29:11;;;;;;;10.80;3.27;;;9.90;65.20;;;;;;5051422;28;20501;-85
2021/12/07 10:31:37;;;;;;;4.13;2.20;;;;;;;;;;5050534;28;20423;-85
2021/12/07 10:34:04;;;;;;;5.17;2.77;;;10.30;61.30;;;;;;5051008;28;20465;-85
2021/12/07 10:36:39;;;;;;;10.10;2.40;;;10.30;60.40;;;;;;5050367;28;20434;-85
2021/12/07 10:39:21;;;;;;;4.53;1.80;;;11.70;60.00;;;;;;5049743;28;20402;-85
2021/12/07 10:42:03;;;;;;;5.60;3.40;;;10.30;59.80;;;;;;5050736;28;20445;-85
2021/12/07 10:44:31;;;;;;;8.00;2.77;;;10.70;61.30;;;;;;5066797;28;20440;-85
2021/12/07 10:46:59;;;;;;;9.07;3.10;;;10.20;72.60;;;;;;5051216;28;20460;-85
2021/12/07 10:49:26;;;;;;;8.87;3.00;;;;;;;;;;5046456;28;20419;-85
2021/12/07 10:52:05;;;;;;;6.80;3.57;;;9.30;62.40;;;;;;5030493;28;20431;-85
2021/12/07 10:55:01;;;;;;;7.87;3.03;;;9.40;62.80;;;;;;5030478;28;20980;-85
2021/12/07 10:57:27;;;;;;;6.93;3.10;;;;;;;;;;5030645;28;20411;-85
2021/12/07 11:00:16;;;;;;;4.23;3.17;;;10.00;60.50;;;;;;5031512;28;20762;-85
2021/12/07 11:02:48;;;;;;;5.60;2.77;;;9.50;61.30;;;;;;5044993;28;20443;-85
2021/12/07 11:05:27;;;;;;;5.13;3.20;;;9.10;61.50;;;;;;5031333;28;20489;-86
2021/12/07 11:07:57;;;;;;;9.10;2.20;;;9.70;61.10;;;;;;5047268;28;20419;-85
2021/12/07 11:10:30;;;;;;;5.73;2.77;;;9.00;62.40;;;;;;5053925;28;20437;-85
2021/12/07 11:15:41;;;;;;;11.97;3.77;;;8.30;65.20;;;;;;5050219;28;20519;-85
2021/12/07 11:18:10;;;;;;;12.63;3.10;;;8.50;66.10;;;;;;5049507;28;20437;-85
2021/12/07 11:20:37;;;;;;;12.50;2.97;;;8.40;66.70;;;;;;5049702;28;20917;-86
2021/12/07 11:23:16;;;;;;;3.87;2.87;;;6.70;65.80;;;;;;5048530;28;20452;-85
2021/12/07 11:31:18;;;;;;;8.07;3.27;;;7.90;69.50;;;;;;5049259;28;20396;-85
2021/12/07 11:33:44;;;;;;;5.70;3.73;;;;;;;;;;5048179;28;20462;-85
2021/12/07 11:36:21;;;;;;;10.13;3.13;;;7.60;68.20;;;;;;5048006;28;20941;-85
2021/12/07 11:38:47;;;;;;;3.10;2.83;;;8.50;66.30;;;;;;5049417;28;20426;-85
2021/12/07 11:41:17;;;;;;;4.53;2.90;;;11.40;63.00;;;;;;5061137;28;20418;-85
2021/12/07 11:43:58;;;;;;;6.20;2.70;;;10.10;72.30;;;;;;5028543;28;20775;-85
2021/12/07 11:46:25;;;;;;;5.53;2.33;;;11.00;57.40;;;;;;5029223;28;20451;-85
2021/12/07 11:49:05;;;;;;;7.70;2.80;;;11.40;56.50;;;;;;5034571;28;20809;-85
2021/12/07 11:51:31;;;;;;;5.43;3.70;;;;;;;;;;5048054;28;20995;-84
2021/12/07 11:53:57;;;;;;;5.87;2.60;;;;;;;;;;5049334;28;20462;-87
2021/12/07 11:56:25;;;;;;;3.77;2.60;;;11.10;56.50;;;;;;5049916;28;20840;-84
2021/12/07 11:58:51;;;;;;;10.63;2.83;;;;;;;;;;5049247;28;20514;-84
2021/12/07 12:01:17;;;;;;;3.27;2.87;;;;;;;;;;5048393;28;20438;-84
2021/12/07 12:03:43;;;;;;;9.27;2.10;;;;;;;;;;5048982;28;20413;-85
2021/12/07 12:06:09;;;;;;;16.47;3.43;;;;;;;;;;5049770;28;20429;-84
2021/12/07 12:08:35;;;;;;;5.83;2.13;;;;;;;;;;5049550;28;20402;-84
2021/12/07 12:11:24;;;;;;;3.70;2.17;;;13.60;49.90;;;;;;5044086;28;20458;-84
2021/12/07 12:14:23;;;;;;;9.17;2.90;;;13.90;48.40;;;;;;5028200;28;20543;-84
2021/12/07 12:17:00;;;;;;;5.47;2.80;;;12.30;50.40;;;;;;5029727;28;20392;-84
2021/12/07 12:19:37;;;;;;;4.90;2.30;;;11.90;51.90;;;;;;5033360;28;20418;-85
2021/12/07 12:22:27;;;;;;;4.70;2.67;;;11.60;52.50;;;;;;5036772;28;20396;-84
2021/12/07 12:24:58;;;;;;;5.23;2.30;;;11.90;52.00;;;;;;5037451;28;20937;-85
2021/12/07 12:27:30;;;;;;;13.90;3.03;;;11.70;52.30;;;;;;5051753;28;20419;-85
2021/12/07 12:29:59;;;;;;;6.07;2.50;;;;;;;;;;5037533;28;20842;-85
2021/12/07 12:32:26;;;;;;;3.87;2.10;;;11.80;52.80;;;;;;5040547;28;20429;-85
2021/12/07 12:34:56;;;;;;;13.33;2.47;;;12.30;72.60;;;;;;5056913;28;20462;-84
2021/12/07 12:52:50;;;;;;;;;;;;;;;;;;;;;
2021/12/07 13:05:22;;;;;;;4.40;2.83;;;;;;;;;;5044381;28;20612;-85
2021/12/07 13:08:21;;;;;;;;;;;;;;;;;;;;;
2021/12/07 13:11:37;;;;;;;10.83;3.90;;;;;;;;;;5040451;28;20446;-86
2021/12/07 13:19:22;;;;;;;4.20;2.57;;;;;;;;;;1430719;26;20531;-85
2021/12/07 13:24:46;;;;;;;7.73;2.27;;;;;;;;;;5054994;28;20506;-86
2021/12/07 13:27:26;;;;;;;14.07;3.47;;;;;;;;;;5070116;28;20498;-84
2021/12/07 13:33:02;;;;;;;7.77;2.60;;;;;;;;;;5006734;28;20467;-84
2021/12/07 13:41:30;;;;;;;5.87;3.90;;;;;;;;;;5055085;28;20431;-85
2021/12/07 13:44:10;;;;;;;8.03;4.30;;;;;;;;;;5069658;28;20505;-86
2021/12/07 13:46:53;;;;;;;5.70;3.80;;;;;;;;;;5052198;28;20522;-85
2021/12/07 13:52:53;;;;;;;9.27;3.57;;;;;;;;;;4918717;29;20425;-85
2021/12/07 13:58:51;;;;;;;4.77;2.40;;;;;;;;;;4960675;28;20406;-85
2021/12/07 14:05:05;;;;;;;5.60;3.20;;;;;;;;;;4976178;28;20827;-85
2021/12/07 14:07:34;;;;;;;2.77;2.60;;;;;;;;;;5010009;28;20438;-87
2021/12/07 14:10:21;;;;;;;3.90;2.83;;;;;;;;;;5053007;28;20512;-86
2021/12/07 14:12:49;;;;;;;5.03;2.80;;;;;;;;;;5056248;28;20414;-86
2021/12/07 14:15:25;;;;;;;7.87;2.97;;;;;;;;;;5052296;28;20447;-85
2021/12/07 14:17:56;;;;;;;4.87;3.93;;;;;;;;;;5051940;28;20418;-85
2021/12/07 14:20:31;;;;;;;11.30;4.73;;;;;;;;;;5052145;28;20484;-86
2021/12/07 14:22:58;;;;;;;4.13;3.73;;;;;;;;;;5032592;28;20817;-85
2021/12/07 14:25:24;;;;;;;9.87;4.60;;;;;;;;;;5051492;28;20445;-86
2021/12/07 14:27:50;;;;;;;3.97;3.27;;;;;;;;;;5052354;28;20414;-85
2021/12/07 14:30:17;;;;;;;14.23;6.47;;;;;;;;;;5052437;28;20479;-85
2021/12/07 14:32:44;;;;;;;15.83;7.17;;;11.00;53.50;;;;;;5034172;28;20428;-86
2021/12/07 14:35:10;;;;;;;12.20;4.83;;;10.40;54.10;;;;;;5035957;28;20442;-85
2021/12/07 14:37:36;;;;;;;11.43;3.90;;;;;;;;;;5034920;28;20435;-86
2021/12/07 14:40:06;;;;;;;9.70;3.37;;;;;;;;;;5048121;28;20464;-85
2021/12/07 14:42:35;;;;;;;6.70;3.30;;;;;;;;;;5033924;28;20503;-86
2021/12/07 14:45:01;;;;;;;11.50;3.63;;;;;;;;;;5035548;28;20439;-86
2021/12/07 14:47:28;;;;;;;18.77;2.73;;;;;;;;;;5035286;28;20784;-85
2021/12/07 14:49:55;;;;;;;4.77;3.03;;;;;;;;;;5035773;28;20462;-85
2021/12/07 14:52:34;;;;;;;6.13;3.27;;;;;;;;;;5016968;28;20515;-86
2021/12/07 14:55:01;;;;;;;7.60;2.70;;;;;;;;;;5035502;28;20496;-85
2021/12/07 14:57:28;;;;;;;7.70;3.00;;;;;;;;;;5014258;28;20539;-84
2021/12/07 14:59:57;;;;;;;4.73;3.10;;;;;;;;;;5031714;28;20479;-85
2021/12/07 15:02:24;;;;;;;5.47;3.27;;;;;;;;;;5030331;28;20426;-85
2021/12/07 15:04:58;;;;;;;8.13;3.77;;;;;;;;;;5030175;28;20446;-85
2021/12/07 15:07:31;;;;;;;11.17;4.20;;;;;;;;;;5012810;28;20419;-85
2021/12/07 15:09:57;;;;;;;8.20;3.70;;;;;;;;;;5043349;28;20458;-85
2021/12/07 15:12:24;;;;;;;10.30;4.90;;;6.50;70.10;;;;;;5050129;28;20422;-85
2021/12/07 15:15:00;;;;;;;14.60;3.97;;;;;;;;;;5051168;28;20397;-85
2021/12/07 15:17:28;;;;;;;6.60;4.80;;;;;;;;;;5051871;28;20381;-85
2021/12/07 15:21:02;;;;;;;12.40;4.03;;;;;;;;;;5100755;27;1338342;-85
2021/12/07 15:23:28;;;;;;;8.80;4.40;;;;;;;;;;5114796;28;20450;-86
2021/12/07 15:25:56;;;;;;;12.37;5.70;;;5.80;72.40;;;;;;5118525;28;20436;-85
2021/12/07 15:28:23;;;;;;;12.23;5.40;;;5.10;73.00;;;;;;5108599;28;20416;-86
2021/12/07 15:30:50;;;;;;;3.43;3.23;;;5.30;73.10;;;;;;5107228;28;20491;-85
2021/12/07 15:33:16;;;;;;;12.27;3.97;;;;;;;;;;5096786;28;20413;-85
2021/12/07 15:35:44;;;;;;;8.87;4.23;;;;;;;;;;5087887;28;20446;-86
2021/12/07 15:38:18;;;;;;;36.23;4.93;;;5.10;93.40;;;;;;5087075;28;20445;-86
2021/12/07 15:40:45;;;;;;;14.83;7.17;;;;;;;;;;5087559;28;20958;-86
2021/12/07 15:43:11;;;;;;;9.43;6.37;;;;;;;;;;5086478;28;20912;-85
2021/12/07 15:45:38;;;;;;;16.43;7.40;;;;;;;;;;5087996;28;20433;-86
2021/12/07 15:48:04;;;;;;;33.53;6.50;;;;;;;;;;5086890;28;20421;-85
2021/12/07 15:50:33;;;;;;;22.83;4.90;;;4.70;74.70;;;;;;5106160;28;20415;-85
2021/12/07 15:53:09;;;;;;;15.73;6.67;;;4.70;75.00;;;;;;5105901;28;20415;-85
2021/12/07 15:55:42;;;;;;;8.67;5.40;;;4.70;93.50;;;;;;5105601;28;20844;-85
2021/12/07 15:58:17;;;;;;;11.67;7.13;;;4.50;73.60;;;;;;5106832;28;20945;-86
2021/12/07 16:00:45;;;;;;;6.63;5.23;;;;;;;;;;5106915;28;20498;-85
2021/12/07 16:03:15;;;;;;;7.60;3.70;;;4.30;73.80;;;;;;5106261;28;20490;-85
2021/12/07 16:05:42;;;;;;;4.50;3.50;;;4.30;76.90;;;;;;5105203;28;20435;-85
2021/12/07 16:08:14;;;;;;;7.33;4.17;;;4.30;76.50;;;;;;5105957;28;20408;-85
2021/12/07 16:10:43;;;;;;;6.53;4.00;;;4.20;76.40;;;;;;5085872;28;20396;-86
2021/12/07 16:13:14;;;;;;;7.20;3.77;;;4.10;77.70;;;;;;5083634;28;20411;-86
2021/12/07 16:16:08;;;;;;;5.23;3.60;;;4.00;74.80;;;;;;5084960;28;20440;-85
2021/12/07 16:18:36;;;;;;;3.90;3.60;;;4.00;78.40;;;;;;5084460;28;20444;-85
2021/12/07 16:21:03;;;;;;;8.47;3.30;;;3.80;78.50;;;;;;5086115;28;20408;-85
2021/12/07 16:23:32;;;;;;;5.80;4.63;;;3.70;79.10;;;;;;5084904;28;20384;-85
2021/12/07 16:25:58;;;;;;;8.63;3.50;;;;;;;;;;5085831;28;20487;-85
2021/12/07 16:28:24;;;;;;;4.20;3.40;;;;;;;;;;5084805;28;20387;-85
2021/12/07 16:30:51;;;;;;;13.90;4.20;;;;;;;;;;5081797;28;20417;-85
2021/12/07 16:33:17;;;;;;;4.73;4.20;;;;;;;;;;5072929;28;20454;-85
2021/12/07 16:35:43;;;;;;;10.47;4.40;;;;;;;;;;5073199;28;20859;-86
2021/12/07 16:38:09;;;;;;;4.73;4.43;;;;;;;;;;5072611;28;20867;-85
2021/12/07 16:40:37;;;;;;;9.07;4.50;;;;;;;;;;5072395;28;20443;-85
2021/12/07 16:43:03;;;;;;;13.90;4.60;;;;;;;;;;5071494;28;20372;-85
2021/12/07 16:45:36;;;;;;;5.57;5.00;;;3.30;82.90;;;;;;5072223;28;20422;-85
2021/12/07 16:48:03;;;;;;;13.80;7.33;;;3.30;81.00;;;;;;5072786;28;20697;-85
2021/12/07 16:50:29;;;;;;;13.23;5.10;;;;;;;;;;5092618;28;20416;-87
2021/12/07 16:52:55;;;;;;;8.20;4.03;;;;;;;;;;5090282;28;20442;-84
2021/12/07 16:55:22;;;;;;;18.03;5.50;;;;;;;;;;5091272;28;20407;-85
2021/12/07 16:57:48;;;;;;;9.60;5.63;;;3.00;82.50;;;;;;5092506;28;20413;-85
2021/12/07 17:00:19;;;;;;;12.27;5.87;;;3.10;83.60;;;;;;5092392;28;20841;-85
2021/12/07 17:02:45;;;;;;;13.53;5.23;;;;;;;;;;5091240;28;20432;-86
2021/12/07 17:05:13;;;;;;;8.63;4.30;;;3.10;84.00;;;;;;5090470;28;20472;-85
2021/12/07 17:07:40;;;;;;;16.20;6.93;;;3.10;84.30;;;;;;5092126;28;20428;-84
2021/12/07 17:10:08;;;;;;;11.07;5.90;;;3.20;84.50;;;;;;5076987;28;20434;-84
2021/12/07 17:12:35;;;;;;;9.73;5.27;;;;;;;;;;5069921;28;20425;-84
2021/12/07 17:15:01;;;;;;;9.50;4.27;;;;;;;;;;5071601;28;20433;-85